Time;durP1;ratioP1;P1;durP2;ratioP2;P2;SDS_P1;SDS_P2;PMS_P1;PMS_P2;Temp;Humidity;BMP_temperature;BMP_pressure;BME280_temperature;BME280_humidity;BME280_pressure;Samples;Min_cycle;Max_cycle;Signal;HPM_P1;HPM_P2
2022/05/06 00:00:14;;;;;;;25.90;14.13;;;;;;;10.74;100.00;95329.44;5087578;28;20201;-78
2022/05/06 00:02:42;;;;;;;22.13;14.43;;;;;;;10.87;100.00;95331.22;5087978;28;20201;-78
2022/05/06 00:05:11;;;;;;;21.47;15.20;;;;;;;10.69;100.00;95329.25;5088398;28;20203;-78
2022/05/06 00:07:38;;;;;;;22.93;15.23;;;;;;;10.40;100.00;95336.66;5088750;28;20197;-80
2022/05/06 00:10:05;;;;;;;31.10;17.47;;;;;;;10.32;100.00;95331.66;5085913;28;20197;-79
2022/05/06 00:12:33;;;;;;;31.50;17.27;;;;;;;10.47;100.00;95332.25;5086743;28;20200;-80
2022/05/06 00:15:00;;;;;;;26.23;16.33;;;;;;;10.61;100.00;95341.66;5086869;28;20205;-79
2022/05/06 00:17:27;;;;;;;26.77;17.13;;;;;;;10.64;100.00;95333.44;5087947;28;20290;-79
2022/05/06 00:19:55;;;;;;;30.13;16.30;;;;;;;10.44;100.00;95335.25;5090342;28;20228;-79
2022/05/06 00:22:22;;;;;;;27.03;16.77;;;;;;;10.26;100.00;95341.03;5090198;28;20204;-80
2022/05/06 00:38:03;;;;;;;32.53;21.40;;;;;;;10.72;100.00;95348.84;5091734;22;20549;-80
2022/05/06 00:40:30;;;;;;;26.80;18.93;;;;;;;10.60;100.00;95353.03;5114042;28;20247;-80
2022/05/06 00:42:57;;;;;;;25.93;19.43;;;;;;;10.31;100.00;95332.63;5121294;28;20665;-78
2022/05/06 00:45:24;;;;;;;29.80;19.57;;;;;;;10.07;100.00;95331.41;5117945;28;20215;-79
2022/05/06 00:47:51;;;;;;;32.07;20.77;;;;;;;10.22;100.00;95342.44;5117697;28;20191;-79
2022/05/06 00:50:19;;;;;;;32.03;21.60;;;;;;;10.38;100.00;95344.66;5118976;28;20279;-78
2022/05/06 00:52:45;;;;;;;35.33;21.00;;;;;;;10.49;100.00;95341.44;5118334;28;20284;-79
2022/05/06 00:55:14;;;;;;;35.43;23.17;;;;;;;10.27;100.00;95335.63;5123305;28;20205;-79
2022/05/06 00:57:42;;;;;;;31.67;22.60;;;;;;;10.00;100.00;95343.56;5114715;28;20215;-79
2022/05/06 01:00:22;;;;;;;33.37;24.13;;;;;;;9.92;100.00;95338.56;5122096;28;20209;-79
2022/05/06 01:02:49;;;;;;;35.07;21.83;;;;;;;10.12;100.00;95350.59;5118423;28;20252;-79
2022/05/06 01:05:17;;;;;;;25.93;18.33;;;;;;;10.27;100.00;95345.25;5117461;28;20198;-79
2022/05/06 01:07:45;;;;;;;30.83;20.60;;;;;;;10.31;100.00;95341.25;5121272;27;20824;-78
2022/05/06 01:10:12;;;;;;;31.60;19.43;;;;;;;10.09;100.00;95350.19;5117935;28;20185;-78
2022/05/06 01:12:40;;;;;;;31.17;18.97;;;;;;;9.81;100.00;95347.72;5117669;28;20199;-79
2022/05/06 01:15:22;;;;;;;26.87;19.10;;;;;;;9.89;100.00;95355.34;5118647;28;20199;-80
2022/05/06 01:17:51;;;;;;;25.93;18.93;;;;;;;10.05;100.00;95352.38;5113024;28;20219;-79
2022/05/06 01:20:19;;;;;;;28.63;18.87;;;;;;;10.21;100.00;95340.84;5118310;28;20191;-78
2022/05/06 01:22:49;;;;;;;27.20;19.20;;;;;;;10.15;100.00;95346.81;5124032;27;20188;-78
2022/05/06 01:25:17;;;;;;;32.60;18.23;;;;;;;9.88;100.00;95348.53;5120913;28;20213;-79
2022/05/06 01:27:47;;;;;;;26.53;19.03;;;;;;;9.75;100.00;95342.53;5113973;28;20710;-78
2022/05/06 01:30:24;;;;;;;29.20;18.50;;;;;;;9.76;100.00;95346.69;5119629;28;20237;-78
2022/05/06 01:32:51;;;;;;;29.97;18.40;;;;;;;9.79;100.00;95341.09;5118909;28;20199;-78
2022/05/06 01:35:21;;;;;;;33.67;19.33;;;;;;;9.89;100.00;95344.16;5115797;28;20211;-79
2022/05/06 01:37:53;;;;;;;25.93;17.60;;;;;;;9.72;100.00;95322.94;5116047;28;20231;-79
2022/05/06 01:40:22;;;;;;;24.70;18.17;;;;;;;9.51;100.00;95339.44;5114122;28;20196;-79
2022/05/06 01:42:51;;;;;;;27.37;17.93;;;;;;;9.54;100.00;95338.25;5120502;28;20862;-79
2022/05/06 01:45:20;;;;;;;26.73;18.27;;;;;;;9.66;100.00;95326.31;5118540;27;20194;-78
2022/05/06 01:47:49;;;;;;;25.93;17.17;;;;;;;9.89;100.00;95339.75;5108838;28;20201;-79
2022/05/06 01:50:18;;;;;;;29.60;18.37;;;;;;;10.01;100.00;95340.78;5105572;27;20203;-78
2022/05/06 01:52:49;;;;;;;25.13;15.87;;;;;;;9.74;100.00;95339.13;5104853;28;20575;-78
2022/05/06 01:55:17;;;;;;;25.47;17.67;;;;;;;9.48;100.00;95331.25;5105699;28;20607;-78
2022/05/06 01:57:44;;;;;;;27.17;16.40;;;;;;;9.43;100.00;95326.66;5102860;28;20694;-80
2022/05/06 02:00:13;;;;;;;26.87;17.20;;;;;;;9.60;100.00;95332.28;5113763;28;20196;-83
2022/05/06 02:02:40;;;;;;;25.17;16.93;;;;;;;9.76;100.00;95329.34;5107915;28;20199;-81
2022/05/06 02:05:19;;;;;;;26.47;15.93;;;;;;;9.85;100.00;95340.34;5107426;28;20198;-82
2022/05/06 02:07:48;;;;;;;25.83;16.30;;;;;;;9.64;100.00;95326.50;5104029;28;20196;-78
2022/05/06 02:10:18;;;;;;;34.70;23.97;;;;;;;9.43;100.00;95334.44;5103304;28;20643;-79
2022/05/06 02:12:46;;;;;;;31.87;20.33;;;;;;;9.51;100.00;95336.03;5104485;28;20188;-79
2022/05/06 02:15:13;;;;;;;27.43;19.30;;;;;;;9.68;100.00;95335.50;5103003;28;20253;-79
2022/05/06 02:17:41;;;;;;;27.70;18.97;;;;;;;9.85;100.00;95342.94;5104371;28;20213;-77
2022/05/06 02:20:10;;;;;;;29.73;18.43;;;;;;;9.96;100.00;95340.56;5105461;28;20192;-78
2022/05/06 02:22:42;;;;;;;26.10;18.27;;;;;;;10.08;100.00;95351.16;5102036;28;20196;-79
2022/05/06 02:25:10;;;;;;;31.20;18.80;;;;;;;9.74;100.00;95341.72;5103099;28;20622;-79
2022/05/06 02:27:39;;;;;;;27.87;20.57;;;;;;;9.50;100.00;95343.03;5101231;28;20193;-78
2022/05/06 02:35:36;;;;;;;29.40;18.67;;;;;;;9.81;100.00;95339.16;5102604;28;20211;-79
2022/05/06 02:38:04;;;;;;;43.93;21.03;;;;;;;9.91;100.00;95340.34;5103104;28;20362;-78
2022/05/06 02:40:30;;;;;;;30.83;21.43;;;;;;;9.96;100.00;95334.56;5102922;28;20196;-79
2022/05/06 02:42:59;;;;;;;32.70;19.50;;;;;;;9.70;100.00;95338.69;5104446;28;20193;-78
2022/05/06 02:45:26;;;;;;;34.33;20.13;;;;;;;9.44;100.00;95340.41;5105237;28;20200;-79
2022/05/06 02:47:52;;;;;;;38.83;20.80;;;;;;;9.27;100.00;95333.94;5102907;28;20633;-79
2022/05/06 02:50:20;;;;;;;32.80;22.77;;;;;;;9.37;100.00;95339.59;5101009;28;20658;-80
2022/05/06 02:52:46;;;;;;;34.53;21.93;;;;;;;9.57;100.00;95338.66;5102394;28;20219;-79
2022/05/06 02:55:13;;;;;;;31.80;20.33;;;;;;;9.69;100.00;95334.53;5105104;28;20200;-79
2022/05/06 02:57:40;;;;;;;25.03;18.97;;;;;;;9.62;100.00;95331.09;5098697;28;20323;-79
2022/05/06 03:00:10;;;;;;;26.97;18.70;;;;;;;9.40;100.00;95341.78;5099443;28;20195;-79
2022/05/06 03:02:37;;;;;;;27.20;19.17;;;;;;;9.21;100.00;95342.47;5100550;28;20197;-79
2022/05/06 03:05:05;;;;;;;25.47;17.97;;;;;;;9.20;100.00;95341.72;5111409;28;20200;-79
2022/05/06 03:07:31;;;;;;;28.30;16.83;;;;;;;9.32;100.00;95334.19;5106505;27;20196;-79
2022/05/06 03:09:58;;;;;;;25.23;16.23;;;;;;;9.57;100.00;95345.66;5105925;28;20283;-79
2022/05/06 03:12:29;;;;;;;20.87;14.03;;;;;;;9.70;100.00;95346.47;5107236;28;20203;-79
2022/05/06 03:14:56;;;;;;;22.00;15.50;;;;;;;9.70;100.00;95350.88;5103463;28;20287;-81
2022/05/06 03:17:25;;;;;;;23.53;14.40;;;;;;;9.36;100.00;95349.16;5106165;28;20248;-80
2022/05/06 03:19:52;;;;;;;20.63;14.50;;;;;;;9.10;100.00;95346.44;5109747;28;20207;-80
2022/05/06 03:22:19;;;;;;;20.37;14.80;;;;;;;9.25;100.00;95347.13;5102842;28;20262;-80
2022/05/06 03:24:45;;;;;;;22.30;14.70;;;;;;;9.42;100.00;95345.78;5102822;28;20670;-80
2022/05/06 03:29:53;;;;;;;22.07;13.40;;;;;;;9.82;100.00;95356.28;5100837;28;20569;-79
2022/05/06 03:32:22;;;;;;;17.63;13.07;;;;;;;9.55;100.00;95358.03;5100800;28;20574;-80
2022/05/06 03:34:51;;;;;;;19.53;14.03;;;;;;;9.35;100.00;95365.69;5096660;28;20623;-78
2022/05/06 03:37:18;;;;;;;25.90;15.87;;;;;;;9.15;100.00;95362.19;5100323;28;20213;-79
2022/05/06 03:39:44;;;;;;;26.77;15.20;;;;;;;9.32;100.00;95367.91;5103423;28;20229;-78
2022/05/06 03:42:12;;;;;;;23.80;15.47;;;;;;;9.46;100.00;95366.97;5099140;28;20254;-78
2022/05/06 03:44:38;;;;;;;22.97;16.43;;;;;;;9.64;100.00;95367.22;5103877;28;20204;-80
2022/05/06 03:47:06;;;;;;;25.33;16.87;;;;;;;9.50;100.00;95370.75;5107814;28;20199;-79
2022/05/06 03:49:33;;;;;;;26.77;17.67;;;;;;;9.34;100.00;95376.28;5104876;28;20184;-79
2022/05/06 03:52:01;;;;;;;25.53;17.33;;;;;;;9.09;100.00;95361.19;5096608;28;20196;-79
2022/05/06 03:54:28;;;;;;;26.07;17.27;;;;;;;9.34;100.00;95377.09;5098296;28;20195;-80
2022/05/06 03:56:54;;;;;;;29.03;17.97;;;;;;;9.53;100.00;95381.56;5106323;28;20254;-80
2022/05/06 03:59:21;;;;;;;32.37;20.37;;;;;;;9.61;100.00;95378.78;5102983;28;20223;-79
2022/05/06 04:01:48;;;;;;;28.37;19.77;;;;;;;9.48;100.00;95391.72;5101906;28;20196;-79
2022/05/06 04:04:15;;;;;;;30.97;21.30;;;;;;;9.23;100.00;95376.81;5103672;28;20684;-79
2022/05/06 04:06:42;;;;;;;33.97;23.63;;;;;;;9.18;100.00;95386.97;5100399;28;20200;-79
2022/05/06 04:09:12;;;;;;;37.20;23.80;;;;;;;9.36;100.00;95385.47;5098842;28;20214;-79
2022/05/06 04:11:39;;;;;;;30.73;21.83;;;;;;;9.58;100.00;95389.56;5102010;28;20335;-79
2022/05/06 04:14:05;;;;;;;31.10;22.70;;;;;;;9.74;100.00;95392.81;5098732;28;20204;-79
2022/05/06 04:16:32;;;;;;;37.80;24.20;;;;;;;9.56;100.00;95393.34;5100809;28;20197;-79
2022/05/06 04:18:59;;;;;;;36.60;25.23;;;;;;;9.40;100.00;95393.69;5103709;28;20201;-80
2022/05/06 04:24:11;;;;;;;27.73;18.17;;;;;;;9.59;100.00;95388.56;5102214;28;20196;-79
2022/05/06 04:26:38;;;;;;;27.27;19.30;;;;;;;9.66;100.00;95386.00;5108253;28;20207;-78
2022/05/06 04:29:05;;;;;;;27.77;19.40;;;;;;;9.59;100.00;95395.56;5104521;28;20270;-80
2022/05/06 04:31:32;;;;;;;30.30;19.93;;;;;;;9.48;100.00;95401.28;5098789;28;20192;-79
2022/05/06 04:33:59;;;;;;;29.03;19.67;;;;;;;9.33;100.00;95413.56;5104832;28;20192;-78
2022/05/06 04:36:26;;;;;;;28.57;20.60;;;;;;;9.43;100.00;95407.06;5102739;28;20215;-79
2022/05/06 04:38:53;;;;;;;31.60;22.03;;;;;;;9.52;100.00;95407.72;5099691;28;20224;-80
2022/05/06 04:41:21;;;;;;;32.83;23.43;;;;;;;9.70;100.00;95405.38;5104284;28;20196;-79
2022/05/06 04:43:48;;;;;;;38.17;23.87;;;;;;;9.89;100.00;95406.47;5100267;28;20196;-79
2022/05/06 04:46:14;;;;;;;38.63;24.63;;;;;;;10.05;100.00;95412.09;5100841;28;20578;-81
2022/05/06 04:48:41;;;;;;;43.67;24.50;;;;;;;9.93;100.00;95410.25;5104972;28;20203;-78
2022/05/06 04:51:08;;;;;;;34.80;22.33;;;;;;;9.70;100.00;95397.59;5102414;28;20192;-80
2022/05/06 04:53:35;;;;;;;42.63;23.23;;;;;;;9.85;100.00;95411.22;5099178;28;20196;-79
2022/05/06 04:56:02;;;;;;;43.37;24.67;;;;;;;10.00;100.00;95408.47;5096566;28;20602;-78
2022/05/06 04:58:30;;;;;;;41.40;25.40;;;;;;;10.21;100.00;95411.78;5091808;28;20572;-81
2022/05/06 05:00:57;;;;;;;44.73;25.40;;;;;;;10.44;100.00;95415.81;5105836;28;20199;-78
2022/05/06 05:03:23;;;;;;;41.97;22.80;;;;;;;10.60;100.00;95424.03;5101947;28;20198;-80
2022/05/06 05:05:51;;;;;;;33.80;20.20;;;;;;;10.57;100.00;95416.63;5103008;28;20209;-81
2022/05/06 05:08:18;;;;;;;26.20;18.73;;;;;;;10.33;100.00;95419.00;5103281;28;20259;-82
2022/05/06 05:10:44;;;;;;;30.23;19.70;;;;;;;10.22;100.00;95434.16;5103275;28;20244;-80
2022/05/06 05:13:11;;;;;;;30.33;19.90;;;;;;;10.41;100.00;95437.00;5097349;28;20195;-81
2022/05/06 05:15:39;;;;;;;27.00;19.13;;;;;;;10.58;100.00;95430.41;5102219;28;20586;-81
2022/05/06 05:18:09;;;;;;;24.70;17.90;;;;;;;10.80;100.00;95426.63;5101849;28;20216;-80
2022/05/06 05:20:36;;;;;;;25.90;17.60;;;;;;;10.94;100.00;95422.25;5100854;28;20205;-81
2022/05/06 05:23:03;;;;;;;27.43;18.50;;;;;;;11.02;100.00;95422.03;5105203;28;20250;-82
2022/05/06 05:25:30;;;;;;;27.10;17.77;;;;;;;10.87;100.00;95419.63;5108936;28;20260;-85
2022/05/06 05:27:57;;;;;;;28.67;18.13;;;;;;;10.68;100.00;95423.81;5107039;27;20192;-82
2022/05/06 05:30:24;;;;;;;29.73;19.17;;;;;;;10.57;100.00;95432.22;5104033;28;20192;-80
2022/05/06 05:32:52;;;;;;;26.23;18.53;;;;;;;10.66;100.00;95427.63;5106896;28;20200;-83
2022/05/06 05:35:19;;;;;;;26.07;17.40;;;;;;;10.79;100.00;95419.84;5103074;28;20185;-83
2022/05/06 05:37:46;;;;;;;26.43;16.40;;;;;;;11.10;100.00;95432.22;5108299;28;20281;-85
2022/05/06 05:40:14;;;;;;;23.10;16.07;;;;;;;11.32;100.00;95444.81;5113302;28;20279;-89
2022/05/06 05:42:42;;;;;;;20.40;14.80;;;;;;;11.36;100.00;95427.00;5108431;28;20204;-90
2022/05/06 05:50:40;;;;;;;28.63;16.10;;;;;;;11.09;100.00;95417.59;5106162;28;20244;-87
2022/05/06 05:53:06;;;;;;;26.27;16.07;;;;;;;11.25;100.00;95415.41;5103889;28;20192;-86
2022/05/06 05:55:33;;;;;;;24.03;16.13;;;;;;;11.63;100.00;95427.72;5104884;28;20208;-79
2022/05/06 05:58:01;;;;;;;18.90;14.07;;;;;;;11.81;100.00;95430.50;5105765;28;20215;-80
2022/05/06 06:00:28;;;;;;;19.60;14.00;;;;;;;11.66;100.00;95430.72;5108267;28;20204;-81
2022/05/06 06:02:56;;;;;;;20.20;13.97;;;;;;;11.45;100.00;95423.16;5106896;28;20189;-81
2022/05/06 06:05:24;;;;;;;23.73;14.27;;;;;;;11.56;100.00;95426.94;5103455;28;20249;-81
2022/05/06 06:07:51;;;;;;;27.77;15.33;;;;;;;11.81;100.00;95427.88;5104525;28;20270;-80
2022/05/06 06:10:18;;;;;;;21.33;13.57;;;;;;;12.03;100.00;95428.41;5106042;28;20200;-81
2022/05/06 06:12:48;;;;;;;23.43;14.20;;;;;;;12.30;100.00;95430.66;5102336;28;20197;-80
2022/05/06 06:15:15;;;;;;;21.93;13.97;;;;;;;12.51;100.00;95434.75;5102152;28;20200;-80
2022/05/06 06:17:42;;;;;;;21.87;13.87;;;;;;;12.44;100.00;95426.16;5102755;28;20744;-80
2022/05/06 06:20:12;;;;;;;24.07;14.73;;;;;;;12.10;100.00;95432.56;5102238;28;20193;-79
2022/05/06 06:22:40;;;;;;;20.73;13.57;;;;;;;12.16;100.00;95429.13;5102411;28;20200;-80
2022/05/06 06:25:08;;;;;;;20.17;13.43;;;;;;;12.40;100.00;95433.63;5108805;28;20210;-80
2022/05/06 06:27:35;;;;;;;25.40;12.57;;;;;;;12.71;100.00;95445.84;5104141;28;20203;-79
2022/05/06 06:30:02;;;;;;;28.40;13.90;;;;;;;12.95;100.00;95441.69;5106509;28;20189;-79
2022/05/06 06:32:29;;;;;;;19.90;12.47;;;;;;;13.17;100.00;95431.69;5104235;28;20208;-79
2022/05/06 06:34:56;;;;;;;18.93;12.93;;;;;;;13.39;100.00;95436.28;5106446;28;20224;-80
2022/05/06 06:37:27;;;;;;;21.50;12.43;;;;;;;13.35;100.00;95427.31;5108301;28;20204;-78
2022/05/06 06:39:54;;;;;;;19.17;12.27;;;;;;;13.12;100.00;95428.91;5110197;28;20554;-81
2022/05/06 06:42:21;;;;;;;22.13;12.40;;;;;;;12.79;100.00;95431.75;5110747;28;20196;-80
2022/05/06 06:44:48;;;;;;;23.63;13.87;;;;;;;12.57;100.00;95415.66;5112282;28;20204;-80
2022/05/06 06:47:15;;;;;;;20.23;13.43;;;;;;;12.45;100.00;95423.38;5108159;28;20220;-80
2022/05/06 06:49:42;;;;;;;15.87;12.10;;;;;;;12.73;100.00;95422.97;5114249;28;20246;-81
2022/05/06 06:52:09;;;;;;;16.27;11.77;;;;;;;13.05;100.00;95428.94;5105277;28;20207;-80
2022/05/06 06:54:37;;;;;;;20.20;11.83;;;;;;;13.29;100.00;95440.41;5100275;28;20615;-73
2022/05/06 06:57:05;;;;;;;16.57;11.60;;;;;;;13.53;100.00;95437.75;5107970;28;20227;-72
2022/05/06 06:59:32;;;;;;;17.70;10.67;;;;;;;13.80;100.00;95435.66;5108253;28;20223;-72
2022/05/06 07:02:00;;;;;;;23.03;11.53;;;;;;;14.08;99.34;95446.38;5111614;28;20214;-72
2022/05/06 07:04:27;;;;;;;19.17;11.27;;;;;;;14.29;97.19;95446.94;5104707;28;20197;-71
2022/05/06 07:12:24;;;;;;;13.90;9.13;;;;;;;14.89;92.38;95450.38;5104109;28;20207;-72
2022/05/06 07:14:51;;;;;;;15.87;9.17;;;;;;;14.98;89.42;95443.78;5108905;28;20641;-76
2022/05/06 07:17:18;;;;;;;16.50;9.13;;;;;;;15.13;90.11;95447.53;5105209;28;20192;-74
2022/05/06 07:19:44;;;;;;;12.17;8.20;;;;;;;15.26;90.41;95449.97;5111375;28;20203;-72
2022/05/06 07:22:11;;;;;;;15.47;8.20;;;;;;;15.43;89.30;95450.06;5110666;28;20211;-71
2022/05/06 07:24:40;;;;;;;14.00;7.80;;;;;;;15.55;87.82;95456.16;5111488;28;20196;-73
2022/05/06 07:27:08;;;;;;;14.13;7.90;;;;;;;15.66;87.54;95455.34;5108097;28;20227;-72
2022/05/06 07:29:35;;;;;;;13.40;8.10;;;;;;;15.79;87.42;95446.41;5108135;28;20199;-74
2022/05/06 07:32:02;;;;;;;12.07;7.67;;;;;;;15.96;86.46;95449.91;5108815;28;20283;-83
2022/05/06 07:34:29;;;;;;;12.23;8.30;;;;;;;16.12;85.45;95446.59;5111590;28;20681;-71
2022/05/06 07:36:56;;;;;;;13.60;7.83;;;;;;;16.22;84.19;95449.41;5110272;28;20627;-72
2022/05/06 07:39:23;;;;;;;9.43;7.40;;;;;;;16.30;83.28;95443.81;5110706;28;20232;-70
2022/05/06 07:41:51;;;;;;;9.57;7.20;;;;;;;16.31;84.34;95449.81;5103821;28;20924;-77
2022/05/06 07:44:18;;;;;;;14.00;8.50;;;;;;;16.43;84.07;95446.13;5100844;28;20708;-75
2022/05/06 07:46:45;;;;;;;9.43;7.43;;;;;;;16.58;84.24;95447.47;5097673;28;20223;-78
2022/05/06 07:49:12;;;;;;;11.90;7.87;;;;;;;16.66;84.13;95432.16;5102092;28;20188;-75
2022/05/06 07:51:39;;;;;;;11.43;7.87;;;;;;;16.70;83.51;95435.91;5100025;28;20196;-75
2022/05/06 07:54:06;;;;;;;16.27;7.50;;;;;;;16.94;82.18;95444.44;5105495;28;20286;-77
2022/05/06 07:56:33;;;;;;;11.20;7.70;;;;;;;17.01;82.11;95434.56;5107182;28;20239;-80
2022/05/06 07:59:01;;;;;;;9.43;7.27;;;;;;;17.18;81.01;95439.81;5102496;28;20212;-77
2022/05/06 08:06:57;;;;;;;12.83;7.20;;;;;;;17.61;81.62;95439.97;5100659;28;20204;-74
2022/05/06 08:09:24;;;;;;;13.63;7.50;;;;;;;17.79;79.93;95438.91;5103547;28;20196;-80
2022/05/06 08:11:51;;;;;;;12.73;7.00;;;;;;;17.80;79.08;95429.97;5095721;28;20189;-79
2022/05/06 08:14:22;;;;;;;8.20;6.73;;;;;;;17.89;78.71;95431.94;5102242;28;20192;-78
2022/05/06 08:16:51;;;;;;;14.10;7.23;;;;;;;17.72;78.80;95428.53;5103868;28;20586;-76
2022/05/06 08:19:18;;;;;;;11.00;7.40;;;;;;;17.39;80.44;95425.97;5100591;28;20212;-77
2022/05/06 08:21:45;;;;;;;10.30;7.83;;;;;;;16.84;81.99;95416.19;5099833;28;20224;-78
2022/05/06 08:26:48;;;;;;;11.73;7.60;;;;;;;17.31;82.05;95421.13;5449329;22;20243;-83
2022/05/06 08:29:15;;;;;;;12.47;7.13;;;;;;;17.53;80.57;95428.00;5124266;27;20282;-80
2022/05/06 08:31:43;;;;;;;9.97;6.83;;;;;;;17.82;79.89;95430.53;5125013;27;20208;-81
2022/05/06 08:34:12;;;;;;;13.30;6.93;;;;;;;17.98;79.44;95417.31;5125456;27;20207;-80
2022/05/06 08:36:42;;;;;;;7.17;5.90;;;;;;;18.14;77.47;95408.59;5117913;27;20710;-78
2022/05/06 08:39:10;;;;;;;7.43;6.30;;;;;;;18.42;77.30;95418.09;5123267;28;20283;-81
2022/05/06 08:41:37;;;;;;;12.17;6.67;;;;;;;18.45;77.43;95430.75;5119150;28;20294;-83
2022/05/06 08:52:22;;;;;;;11.10;6.88;;;;;;;18.97;75.88;95424.94;5123393;28;20187;-76
2022/05/06 08:54:50;;;;;;;14.05;6.30;;;;;;;19.08;76.30;95416.88;5121053;28;20188;-77
2022/05/06 08:57:18;;;;;;;11.30;6.50;;;;;;;19.01;75.20;95418.16;5121667;27;20210;-77
2022/05/06 08:59:51;;;;;;;13.05;6.80;;;;;;;19.13;75.94;95424.03;5124442;27;20227;-76
2022/05/06 09:02:20;;;;;;;7.88;5.80;;;;;;;19.17;75.34;95418.00;5124406;27;20345;-76
2022/05/06 09:04:47;;;;;;;11.93;6.43;;;;;;;18.73;76.18;95427.09;5123343;27;20551;-76
2022/05/06 09:07:17;;;;;;;15.82;7.82;;;;;;;18.32;78.94;95423.25;5124771;27;20195;-77
2022/05/06 09:09:44;;;;;;;11.87;6.50;;;;;;;18.12;79.55;95420.41;5120891;27;20274;-74
2022/05/06 09:17:50;;;;;;;9.38;6.03;;;;;;;19.22;75.66;95410.13;5125842;27;20195;-76
2022/05/06 09:20:21;;;;;;;9.50;5.95;;;;;;;19.37;74.39;95414.72;5129039;27;20239;-77
2022/05/06 09:22:50;;;;;;;11.95;6.25;;;;;;;19.53;73.61;95407.75;5127893;27;20204;-77
2022/05/06 09:25:36;;;;;;;10.25;6.40;;;;;;;19.72;73.35;95404.41;5126924;27;20248;-77
2022/05/06 09:28:06;;;;;;;8.23;6.30;;;;;;;19.78;72.27;95407.88;5122917;27;20228;-76
2022/05/06 09:30:33;;;;;;;7.70;6.20;;;;;;;18.77;73.10;95374.72;5122718;27;20200;-76
2022/05/06 09:33:01;;;;;;;8.70;6.80;;;;;;;18.39;75.60;95394.09;5130421;27;20188;-76
2022/05/06 09:35:30;;;;;;;26.17;8.18;;;;;;;18.15;76.50;95389.09;5128942;27;20204;-78
2022/05/06 09:37:57;;;;;;;20.00;7.90;;;;;;;18.38;75.97;95380.16;5124819;27;20204;-77
2022/05/06 09:40:29;;;;;;;17.05;6.78;;;;;;;18.76;74.92;95383.69;5126559;27;20281;-77
2022/05/06 09:43:01;;;;;;;81.53;12.75;;;;;;;19.14;74.09;95386.88;5126708;27;20583;-77
2022/05/06 09:45:33;;;;;;;37.22;8.13;;;;;;;19.46;72.02;95386.84;5123891;27;20298;-77
2022/05/06 09:48:03;;;;;;;11.70;6.85;;;;;;;19.74;69.58;95388.31;5127474;27;20223;-77
2022/05/06 09:50:34;;;;;;;16.85;6.95;;;;;;;19.99;69.51;95390.28;5124194;27;20195;-77
2022/05/06 09:53:02;;;;;;;17.90;7.63;;;;;;;20.18;69.36;95391.41;5121629;27;20199;-77
2022/05/06 09:55:30;;;;;;;66.03;10.13;;;;;;;20.38;68.57;95379.09;5121730;27;20245;-76
2022/05/06 09:57:59;;;;;;;10.95;5.60;;;;;;;20.41;67.61;95372.47;5123602;27;20195;-77
2022/05/06 10:00:28;;;;;;;12.52;6.40;;;;;;;20.64;67.02;95385.19;5125292;27;20226;-77
2022/05/06 10:02:56;;;;;;;13.77;6.35;;;;;;;20.74;66.43;95374.66;5124035;27;20593;-77
2022/05/06 10:05:25;;;;;;;7.95;6.13;;;;;;;20.87;65.14;95379.41;5121441;27;20730;-77
2022/05/06 10:07:57;;;;;;;12.77;5.80;;;;;;;20.84;65.06;95372.00;5120684;27;20207;-77
2022/05/06 10:10:26;;;;;;;6.68;5.47;;;;;;;20.92;64.07;95366.19;5121707;27;20241;-77
2022/05/06 10:12:56;;;;;;;11.48;6.05;;;;;;;21.05;65.19;95369.34;5123787;27;20233;-77
2022/05/06 10:15:26;;;;;;;20.15;7.50;;;;;;;21.14;63.92;95370.44;5120730;27;20229;-78
2022/05/06 10:17:55;;;;;;;13.95;6.50;;;;;;;21.25;63.31;95362.25;5120973;27;20200;-75
2022/05/06 10:20:58;;;;;;;16.67;6.63;;;;;;;21.37;62.29;95360.09;5122884;27;20212;-77
2022/05/06 10:23:43;;;;;;;12.18;5.93;;;;;;;21.45;61.33;95356.91;5122827;27;20223;-76
2022/05/06 10:26:31;;;;;;;11.88;6.05;;;;;;;21.56;61.78;95356.91;5124580;27;20226;-76
2022/05/06 10:34:27;;;;;;;10.27;6.30;;;;;;;21.88;58.05;95354.69;5109650;27;20207;-82
2022/05/06 10:36:55;;;;;;;21.67;6.00;;;;;;;21.90;56.99;95340.09;5127013;27;20196;-83
2022/05/06 10:39:24;;;;;;;16.40;5.47;;;;;;;21.88;55.95;95336.16;5128154;27;20211;-81
2022/05/06 10:42:07;;;;;;;5.85;5.15;;;;;;;21.80;55.85;95339.34;5126122;27;20207;-82
2022/05/06 10:44:35;;;;;;;7.53;5.65;;;;;;;21.88;55.54;95338.78;5128187;27;20657;-78
2022/05/06 10:47:03;;;;;;;16.63;5.95;;;;;;;21.99;55.53;95346.44;5123828;27;20573;-78
2022/05/06 10:49:50;;;;;;;11.82;5.20;;;;;;;21.91;55.65;95338.25;5124016;27;20218;-78
2022/05/06 10:52:53;;;;;;;9.65;5.68;;;;;;;21.09;56.94;95334.25;5121723;27;20231;-78
2022/05/06 10:55:25;;;;;;;6.50;5.10;;;;;;;20.56;57.85;95330.25;5124497;27;20195;-76
2022/05/06 10:58:16;;;;;;;13.10;6.45;;;;;;;20.75;57.41;95326.03;5124990;27;20196;-75
2022/05/06 11:00:43;;;;;;;8.48;5.88;;;;;;;21.03;56.57;95329.19;5113895;27;20226;-77
2022/05/06 11:03:10;;;;;;;12.13;6.53;;;;;;;21.21;55.68;95331.31;5124102;27;20203;-78
2022/05/06 11:05:38;;;;;;;14.35;5.65;;;;;;;21.36;55.40;95320.69;5125466;27;20207;-76
2022/05/06 11:08:07;;;;;;;8.48;5.25;;;;;;;21.41;54.08;95324.09;5125457;27;20226;-77
2022/05/06 11:10:36;;;;;;;18.00;5.85;;;;;;;21.72;53.32;95319.53;5121163;27;20194;-75
2022/05/06 11:13:08;;;;;;;36.20;6.88;;;;;;;22.02;52.32;95321.25;5123897;27;20191;-76
2022/05/06 11:15:36;;;;;;;15.35;5.72;;;;;;;22.15;51.22;95306.63;5121064;27;20196;-78
2022/05/06 11:18:05;;;;;;;9.95;4.88;;;;;;;22.23;51.37;95306.03;5122608;27;20957;-77
2022/05/06 11:20:34;;;;;;;9.00;4.90;;;;;;;22.42;50.72;95310.41;5118393;27;20212;-77
2022/05/06 11:23:03;;;;;;;9.02;4.82;;;;;;;22.59;50.03;95304.75;5123495;27;20199;-76
2022/05/06 11:25:32;;;;;;;7.93;4.57;;;;;;;22.75;48.68;95302.78;5121198;27;20202;-77
2022/05/06 11:28:03;;;;;;;7.00;4.28;;;;;;;22.92;47.54;95300.53;5122472;27;20614;-76
2022/05/06 11:30:31;;;;;;;5.75;4.57;;;;;;;23.07;47.37;95295.09;5121462;27;20195;-76
2022/05/06 11:32:59;;;;;;;6.00;5.22;;;;;;;22.95;48.07;95306.06;5122028;27;20188;-76
2022/05/06 11:35:33;;;;;;;8.85;4.85;;;;;;;23.08;47.19;95294.81;5122527;27;20199;-76
2022/05/06 11:38:02;;;;;;;8.13;4.25;;;;;;;23.25;45.77;95298.88;5119805;27;20195;-77
2022/05/06 11:40:34;;;;;;;4.30;3.65;;;;;;;23.24;46.02;95290.13;5123793;27;20219;-76
2022/05/06 11:43:05;;;;;;;5.00;3.92;;;;;;;23.51;45.22;95294.94;5123201;27;20228;-77
2022/05/06 11:48:18;;;;;;;16.83;4.70;;;;;;;23.67;43.38;95293.66;5121622;27;20198;-77
2022/05/06 11:50:48;;;;;;;7.70;3.80;;;;;;;23.81;43.75;95291.88;5118214;27;20236;-76
2022/05/06 11:53:19;;;;;;;6.22;3.85;;;;;;;23.86;42.25;95280.44;5124003;27;20271;-77
2022/05/06 11:55:47;;;;;;;6.75;4.38;;;;;;;23.95;41.88;95286.69;5121038;27;20630;-76
2022/05/06 11:58:17;;;;;;;5.93;4.32;;;;;;;24.08;41.60;95275.34;5125111;27;20203;-79
2022/05/06 12:00:45;;;;;;;6.93;4.03;;;;;;;24.48;41.41;95271.31;5119320;27;20211;-79
2022/05/06 12:03:14;;;;;;;7.70;4.00;;;;;;;24.69;40.78;95278.69;5124382;27;20203;-79
2022/05/06 12:05:42;;;;;;;8.50;4.47;;;;;;;24.77;39.74;95271.91;5119169;27;20540;-78
2022/05/06 12:08:09;;;;;;;4.47;3.72;;;;;;;24.92;39.45;95276.22;5122977;27;20224;-78
2022/05/06 12:10:38;;;;;;;7.53;3.65;;;;;;;25.19;38.62;95274.41;5120551;27;20203;-79
2022/05/06 12:13:08;;;;;;;5.00;3.83;;;;;;;25.48;37.13;95271.50;5121133;27;20192;-78
2022/05/06 12:15:38;;;;;;;6.85;4.00;;;;;;;25.68;36.40;95268.44;5119058;27;20199;-78
2022/05/06 12:18:06;;;;;;;7.50;3.58;;;;;;;25.73;36.46;95264.88;5125461;27;20569;-82
2022/05/06 12:20:41;;;;;;;5.47;3.40;;;;;;;25.88;35.39;95257.38;5127129;27;20285;-84
2022/05/06 12:23:09;;;;;;;9.18;3.58;;;;;;;25.30;35.24;95225.22;5121988;27;20234;-77
2022/05/06 12:25:39;;;;;;;6.57;3.47;;;;;;;25.48;34.42;95244.88;5120077;27;20597;-77
2022/05/06 12:28:10;;;;;;;6.53;3.50;;;;;;;25.62;33.64;95244.88;5121909;27;20220;-80
2022/05/06 12:30:39;;;;;;;5.45;3.58;;;;;;;26.00;32.37;95240.06;5121814;27;20198;-81